Startpagina
METAR-TAF:

METAR-TAF

Vliegvelden :

Saint-Dizier, Frankrijk

breedte: 48-38N, lengte: 004-54E, hoogte: 139 m

Actueel weer

Dit bericht is 18 minuten geleden gemaakt, om 02:00 UTC
Wind 6 kt uit het oosten
Temperatuur -2°C
Vochtigheid 93%
Druk 1024 hPa
Zicht: 4900 m
nevel

METAR: LFSI 240200Z AUTO 10006KT 4900 BR NSC M02/M03 Q1024

Tijdstip: 03:18 (02:18 UTC)

Verwachting

Dit bericht is 6 uur en het 18 minuten geleden gemaakt, om 20:00 UTC
Verwachting geldig van 23 om 21 UTC tot 24 om 21 UTC
Wind 5 kt uit het oosten
Zicht: 6000 m
Verspreide wolken op 1000 ft
Tijdelijke
van 23 om 21 UTC tot 24 om 08 UTC
Zicht: 4000 m
Gebroken wolken op 500 ft
nevel

TAF: LFSI 232000Z 2321/2421 08005KT 6000 SCT010 TEMPO 2321/2408 4000 BR BKN005

Waarnemingen en weersverwachtingen van meer dan 4000 vliegvelden (METAR en TAF).

De beschikbare stations zijn de gele en rode punten op de kaart.

Ga met uw muis naar het station om de naam te zien.

Klik dan om waarnemingen en weersverwachtingen te zien.

kaart wijzigen: klik op de groene knoppen met een zwart kruis om in te zoomen, op de groene knop met een streepje om uit te zoomen of op de groene pijlen voor aangrenzende kaarten.


METAR-TAF: